Time;durP1;ratioP1;P1;durP2;ratioP2;P2;SDS_P1;SDS_P2;PMS_P1;PMS_P2;Temp;Humidity;BMP_temperature;BMP_pressure;BME280_temperature;BME280_humidity;BME280_pressure;Samples;Min_cycle;Max_cycle;Signal;HPM_P1;HPM_P2
2023/03/16 00:00:12;;;;;;;;;;;;;;;;;;5114375;28;19953;-70
2023/03/16 00:02:38;;;;;;;;;;;;;;;;;;5114614;28;20410;-73
2023/03/16 00:05:04;;;;;;;;;;;;;;;;;;5114285;28;19944;-74
2023/03/16 00:07:30;;;;;;;;;;;;;;;;;;5095978;28;20000;-72
2023/03/16 00:09:56;;;;;;;;;;;;;;;;;;5114735;28;19952;-73
2023/03/16 00:12:21;;;;;;;;;;;;;;;;;;5114496;28;19962;-72
2023/03/16 00:14:47;;;;;;;;;;;;;;;;;;5114111;28;20060;-73
2023/03/16 00:17:17;;;;;;;;;;;;;;;;;;5114720;28;20391;-71
2023/03/16 00:19:45;;;;;;;;;;;;;;;;;;5114312;28;19971;-73
2023/03/16 00:22:13;;;;;;;;;;;;;;;;;;5114664;28;19962;-74
2023/03/16 00:24:42;;;;;;;;;;;;;;;;;;5114335;28;19988;-72
2023/03/16 00:27:07;;;;;;;;;;;;;;;;;;5114650;28;19985;-74
2023/03/16 00:29:33;;;;;;;;;;;;;;;;;;5114047;28;19942;-73
2023/03/16 00:31:59;;;;;;;;;;;;;;;;;;5114032;28;20391;-73
2023/03/16 00:34:28;;;;;;;;;;;;;;;;;;5113985;28;19952;-73
2023/03/16 00:36:54;;;;;;;;;;;;;;;;;;5115085;28;19951;-73
2023/03/16 00:39:21;;;;;;;;;;;;;;;;;;5118039;28;20351;-72
2023/03/16 00:41:47;;;;;;;;;;;;;;;;;;5117869;28;20044;-75
2023/03/16 00:44:13;;;;;;;;;;;;;;;;;;5118349;28;20047;-72
2023/03/16 00:46:39;;;;;;;;;;;;;;;;;;5118026;28;19998;-72
2023/03/16 00:49:05;;;;;;;;;;;;;;;;;;5117986;28;19951;-74
2023/03/16 00:51:32;;;;;;;;;;;;;;;;;;5117961;28;19953;-72
2023/03/16 00:53:58;;;;;;;;;;;;;;;;;;5118174;28;19952;-73
2023/03/16 00:56:24;;;;;;;;;;;;;;;;;;5117812;28;20029;-72
2023/03/16 00:58:56;;;;;;;;;;;;;;;;;;5117962;28;19982;-74
2023/03/16 01:01:22;;;;;;;;;;;;;;;;;;5118046;28;19960;-74
2023/03/16 01:03:48;;;;;;;;;;;;;;;;;;5117583;28;19954;-74
2023/03/16 01:06:15;;;;;;;;;;;;;;;;;;5117923;28;19958;-71
2023/03/16 01:08:41;;;;;;;;;;;;;;;;;;5117571;28;20357;-73
2023/03/16 01:11:07;;;;;;;;;;;;;;;;;;5117578;28;19990;-74
2023/03/16 01:13:35;;;;;;;;;;;;;;;;;;5117997;28;20384;-74
2023/03/16 01:16:00;;;;;;;;;;;;;;;;;;5117475;28;19994;-72
2023/03/16 01:18:27;;;;;;;;;;;;;;;;;;5117613;28;19995;-74
2023/03/16 01:20:53;;;;;;;;;;;;;;;;;;5117352;28;20451;-73
2023/03/16 01:23:19;;;;;;;;;;;;;;;;;;5117839;28;20040;-75
2023/03/16 01:25:51;;;;;;;;;;;;;;;;;;5117218;28;19961;-73
2023/03/16 01:28:18;;;;;;;;;;;;;;;;;;5117180;28;20374;-73
2023/03/16 01:30:44;;;;;;;;;;;;;;;;;;5098617;28;19994;-73
2023/03/16 01:33:10;;;;;;;;;;;;;;;;;;5117375;28;19949;-72
2023/03/16 01:35:36;;;;;;;;;;;;;;;;;;5117063;28;20410;-73
2023/03/16 01:38:03;;;;;;;;;;;;;;;;;;5116940;28;20064;-75
2023/03/16 01:40:30;;;;;;;;;;;;;;;;;;5098449;28;19985;-72
2023/03/16 01:42:56;;;;;;;;;;;;;;;;;;5098417;28;19987;-71
2023/03/16 01:45:21;;;;;;;;;;;;;;;;;;5116875;28;19960;-73
2023/03/16 01:47:47;;;;;;;;;;;;;;;;;;5117059;28;20045;-73
2023/03/16 01:50:13;;;;;;;;;;;;;;;;;;5117090;28;19947;-72
2023/03/16 01:52:39;;;;;;;;;;;;;;;;;;5116753;28;20537;-73
2023/03/16 01:55:06;;;;;;;;;;;;;;;;;;5117286;28;20414;-73
2023/03/16 01:57:35;;;;;;;;;;;;;;;;;;5116491;28;19951;-76
2023/03/16 02:00:07;;;;;;;;;;;;;;;;;;5116853;28;20048;-73
2023/03/16 02:02:33;;;;;;;;;;;;;;;;;;5116542;28;19950;-76
2023/03/16 02:05:00;;;;;;;;;;;;;;;;;;5116467;28;19954;-73
2023/03/16 02:07:26;;;;;;;;;;;;;;;;;;5116443;28;19945;-73
2023/03/16 02:09:52;;;;;;;;;;;;;;;;;;5116943;28;20038;-73
2023/03/16 02:12:18;;;;;;;;;;;;;;;;;;5116310;28;19949;-72
2023/03/16 02:14:44;;;;;;;;;;;;;;;;;;5116838;28;19967;-74
2023/03/16 02:17:10;;;;;;;;;;;;;;;;;;5116317;28;19944;-74
2023/03/16 02:19:36;;;;;;;;;;;;;;;;;;5116128;28;19969;-74
2023/03/16 02:22:02;;;;;;;;;;;;;;;;;;5116788;28;20453;-73
2023/03/16 02:24:28;;;;;;;;;;;;;;;;;;5116107;28;20515;-76
2023/03/16 02:26:53;;;;;;;;;;;;;;;;;;5116073;28;19965;-75
2023/03/16 02:29:19;;;;;;;;;;;;;;;;;;5116054;28;19953;-76
2023/03/16 02:31:45;;;;;;;;;;;;;;;;;;5116638;28;20391;-74
2023/03/16 02:34:11;;;;;;;;;;;;;;;;;;5115948;28;19955;-74
2023/03/16 02:36:37;;;;;;;;;;;;;;;;;;5115904;28;19945;-73
2023/03/16 02:39:04;;;;;;;;;;;;;;;;;;5115770;28;19971;-75
2023/03/16 02:41:31;;;;;;;;;;;;;;;;;;5097374;28;20079;-74
2023/03/16 02:43:57;;;;;;;;;;;;;;;;;;5116016;28;19953;-74
2023/03/16 02:46:23;;;;;;;;;;;;;;;;;;5115995;28;19946;-72
2023/03/16 02:48:49;;;;;;;;;;;;;;;;;;5115672;28;19950;-74
2023/03/16 02:51:15;;;;;;;;;;;;;;;;;;5115676;28;19956;-73
2023/03/16 02:53:41;;;;;;;;;;;;;;;;;;5115842;28;19947;-73
2023/03/16 02:56:07;;;;;;;;;;;;;;;;;;5115448;28;20312;-74
2023/03/16 02:58:33;;;;;;;;;;;;;;;;;;5115652;28;20020;-75
2023/03/16 03:01:00;;;;;;;;;;;;;;;;;;5114892;28;19949;-71
2023/03/16 03:03:26;;;;;;;;;;;;;;;;;;5115364;28;19942;-75
2023/03/16 03:05:52;;;;;;;;;;;;;;;;;;5115600;28;19986;-72
2023/03/16 03:08:21;;;;;;;;;;;;;;;;;;5115593;28;19957;-71
2023/03/16 03:10:47;;;;;;;;;;;;;;;;;;5115136;28;19959;-72
2023/03/16 03:13:13;;;;;;;;;;;;;;;;;;5115207;28;19952;-75
2023/03/16 03:15:39;;;;;;;;;;;;;;;;;;5115600;28;20369;-73
2023/03/16 03:18:05;;;;;;;;;;;;;;;;;;5115048;28;19970;-75
2023/03/16 03:20:31;;;;;;;;;;;;;;;;;;5115288;28;19950;-72
2023/03/16 03:22:56;;;;;;;;;;;;;;;;;;5115013;28;19999;-74
2023/03/16 03:25:22;;;;;;;;;;;;;;;;;;5115542;28;19955;-72
2023/03/16 03:27:48;;;;;;;;;;;;;;;;;;5115220;28;19950;-74
2023/03/16 03:30:15;;;;;;;;;;;;;;;;;;5115428;28;20415;-72
2023/03/16 03:32:42;;;;;;;;;;;;;;;;;;5115431;28;20006;-72
2023/03/16 03:35:11;;;;;;;;;;;;;;;;;;5114796;28;20357;-72
2023/03/16 03:37:37;;;;;;;;;;;;;;;;;;5115244;28;20422;-74
2023/03/16 03:40:10;;;;;;;;;;;;;;;;;;5114545;28;19996;-72
2023/03/16 03:42:36;;;;;;;;;;;;;;;;;;5096088;28;19953;-74
2023/03/16 03:45:02;;;;;;;;;;;;;;;;;;5114592;28;19951;-75
2023/03/16 03:47:28;;;;;;;;;;;;;;;;;;5114834;28;19944;-74
2023/03/16 03:49:54;;;;;;;;;;;;;;;;;;5114538;28;19955;-75
2023/03/16 03:52:20;;;;;;;;;;;;;;;;;;5096090;28;20406;-73
2023/03/16 03:54:45;;;;;;;;;;;;;;;;;;5114418;28;19955;-75
2023/03/16 03:57:11;;;;;;;;;;;;;;;;;;5114685;28;19955;-74
2023/03/16 03:59:42;;;;;;;;;;;;;;;;;;5114567;28;20107;-73
2023/03/16 04:02:08;;;;;;;;;;;;;;;;;;5114953;28;20036;-73
2023/03/16 04:04:34;;;;;;;;;;;;;;;;;;5114334;28;19943;-74
2023/03/16 04:07:00;;;;;;;;;;;;;;;;;;5114306;28;20010;-71
2023/03/16 04:09:26;;;;;;;;;;;;;;;;;;5114256;28;19951;-72
2023/03/16 04:11:51;;;;;;;;;;;;;;;;;;5113382;28;20401;-73
2023/03/16 04:14:17;;;;;;;;;;;;;;;;;;5114161;28;19970;-73
2023/03/16 04:16:43;;;;;;;;;;;;;;;;;;5114707;28;20306;-73
2023/03/16 04:19:10;;;;;;;;;;;;;;;;;;5114329;28;19967;-73
2023/03/16 04:21:36;;;;;;;;;;;;;;;;;;5095646;28;20000;-74
2023/03/16 04:24:04;;;;;;;;;;;;;;;;;;5114390;28;20034;-73
2023/03/16 04:26:29;;;;;;;;;;;;;;;;;;5114080;28;19959;-73
2023/03/16 04:28:55;;;;;;;;;;;;;;;;;;5114091;28;19950;-72
2023/03/16 04:31:21;;;;;;;;;;;;;;;;;;5114318;28;20042;-73
2023/03/16 04:33:47;;;;;;;;;;;;;;;;;;5114287;28;20028;-72
2023/03/16 04:36:13;;;;;;;;;;;;;;;;;;5114055;28;19960;-73
2023/03/16 04:38:39;;;;;;;;;;;;;;;;;;5113782;28;19975;-73
2023/03/16 04:41:05;;;;;;;;;;;;;;;;;;5114300;28;20350;-75
2023/03/16 04:43:33;;;;;;;;;;;;;;;;;;5114749;28;20106;-73
2023/03/16 04:45:59;;;;;;;;;;;;;;;;;;5114190;28;19952;-71
2023/03/16 04:48:24;;;;;;;;;;;;;;;;;;5114424;28;19997;-73
2023/03/16 04:50:50;;;;;;;;;;;;;;;;;;5113877;28;19950;-74
2023/03/16 04:53:16;;;;;;;;;;;;;;;;;;5114420;28;20378;-74
2023/03/16 04:55:42;;;;;;;;;;;;;;;;;;5114064;28;20021;-73
2023/03/16 04:58:08;;;;;;;;;;;;;;;;;;5113650;28;20466;-74
2023/03/16 05:00:34;;;;;;;;;;;;;;;;;;5114098;28;19950;-72
2023/03/16 05:03:03;;;;;;;;;;;;;;;;;;5113737;28;20303;-73
2023/03/16 05:05:28;;;;;;;;;;;;;;;;;;5113750;28;20328;-73
2023/03/16 05:07:54;;;;;;;;;;;;;;;;;;5114281;28;19950;-72
2023/03/16 05:10:20;;;;;;;;;;;;;;;;;;5113673;28;19953;-73
2023/03/16 05:12:46;;;;;;;;;;;;;;;;;;5114194;28;19963;-73
2023/03/16 05:15:12;;;;;;;;;;;;;;;;;;5113540;28;20044;-72
2023/03/16 05:17:40;;;;;;;;;;;;;;;;;;5113858;28;19990;-73
2023/03/16 05:20:07;;;;;;;;;;;;;;;;;;5113873;28;19981;-73
2023/03/16 05:22:36;;;;;;;;;;;;;;;;;;5095353;28;20439;-72
2023/03/16 05:25:04;;;;;;;;;;;;;;;;;;5117490;28;19961;-72
2023/03/16 05:27:30;;;;;;;;;;;;;;;;;;5117265;28;19949;-74
2023/03/16 05:29:56;;;;;;;;;;;;;;;;;;5117501;28;19996;-73
2023/03/16 05:32:21;;;;;;;;;;;;;;;;;;5117108;28;20315;-74
2023/03/16 05:34:47;;;;;;;;;;;;;;;;;;5117399;28;19983;-72
2023/03/16 05:37:13;;;;;;;;;;;;;;;;;;5117057;28;19953;-72
2023/03/16 05:39:39;;;;;;;;;;;;;;;;;;5117519;28;20493;-72
2023/03/16 05:42:05;;;;;;;;;;;;;;;;;;5116574;28;19985;-73
2023/03/16 05:44:32;;;;;;;;;;;;;;;;;;5117202;28;20183;-73
2023/03/16 05:46:58;;;;;;;;;;;;;;;;;;5098603;28;19954;-75
2023/03/16 05:49:24;;;;;;;;;;;;;;;;;;5116781;28;19952;-72
2023/03/16 05:51:50;;;;;;;;;;;;;;;;;;5117318;28;20300;-73
2023/03/16 05:54:16;;;;;;;;;;;;;;;;;;5116733;28;19952;-73
2023/03/16 05:56:42;;;;;;;;;;;;;;;;;;5116693;28;19947;-75
2023/03/16 05:59:07;;;;;;;;;;;;;;;;;;5116838;28;19965;-72
2023/03/16 06:01:33;;;;;;;;;;;;;;;;;;5116574;28;20399;-73
2023/03/16 06:04:01;;;;;;;;;;;;;;;;;;5116914;28;20000;-73
2023/03/16 06:06:27;;;;;;;;;;;;;;;;;;5116515;28;20046;-73
2023/03/16 06:08:53;;;;;;;;;;;;;;;;;;5116471;28;20021;-72
2023/03/16 06:11:19;;;;;;;;;;;;;;;;;;5116975;28;19951;-73
2023/03/16 06:13:45;;;;;;;;;;;;;;;;;;5116291;28;19951;-73
2023/03/16 06:16:13;;;;;;;;;;;;;;;;;;5097995;28;19959;-73
2023/03/16 06:18:39;;;;;;;;;;;;;;;;;;5116223;28;20063;-73
2023/03/16 06:21:04;;;;;;;;;;;;;;;;;;5116296;28;19996;-72
2023/03/16 06:23:30;;;;;;;;;;;;;;;;;;5116538;28;19947;-76
2023/03/16 06:25:58;;;;;;;;;;;;;;;;;;5116145;28;20472;-71
2023/03/16 06:28:24;;;;;;;;;;;;;;;;;;5097820;28;19955;-73
2023/03/16 06:30:50;;;;;;;;;;;;;;;;;;5116311;28;20284;-73
2023/03/16 06:33:16;;;;;;;;;;;;;;;;;;5115956;28;19956;-74
2023/03/16 06:35:41;;;;;;;;;;;;;;;;;;5115043;28;20038;-75
2023/03/16 06:38:07;;;;;;;;;;;;;;;;;;5116380;28;19971;-72
2023/03/16 06:40:33;;;;;;;;;;;;;;;;;;5115659;28;19983;-72
2023/03/16 06:43:00;;;;;;;;;;;;;;;;;;5115817;28;19958;-74
2023/03/16 06:45:26;;;;;;;;;;;;;;;;;;5116033;28;20334;-74
2023/03/16 06:47:52;;;;;;;;;;;;;;;;;;5115692;28;19960;-71
2023/03/16 06:50:19;;;;;;;;;;;;;;;;;;5115970;28;19950;-74
2023/03/16 06:52:45;;;;;;;;;;;;;;;;;;5115895;28;19955;-74
2023/03/16 06:55:13;;;;;;;;;;;;;;;;;;5116118;28;19954;-73
2023/03/16 06:57:39;;;;;;;;;;;;;;;;;;5115409;28;19957;-73
2023/03/16 07:00:06;;;;;;;;;;;;;;;;;;5115662;28;20041;-73
2023/03/16 07:02:34;;;;;;;;;;;;;;;;;;5115695;28;19954;-74
2023/03/16 07:05:00;;;;;;;;;;;;;;;;;;5115917;28;19951;-73
2023/03/16 07:07:26;;;;;;;;;;;;;;;;;;5115277;28;19955;-72
2023/03/16 07:09:52;;;;;;;;;;;;;;;;;;5115533;28;19951;-73
2023/03/16 07:12:18;;;;;;;;;;;;;;;;;;5115214;28;19955;-74
2023/03/16 07:14:44;;;;;;;;;;;;;;;;;;5115111;28;19967;-72
2023/03/16 07:17:10;;;;;;;;;;;;;;;;;;5115153;28;20000;-75
2023/03/16 07:19:36;;;;;;;;;;;;;;;;;;5115230;28;19973;-72
2023/03/16 07:22:02;;;;;;;;;;;;;;;;;;5115296;28;19962;-74
2023/03/16 07:24:27;;;;;;;;;;;;;;;;;;5115588;28;20416;-72
2023/03/16 07:26:53;;;;;;;;;;;;;;;;;;5115505;28;20319;-72
2023/03/16 07:29:19;;;;;;;;;;;;;;;;;;5115533;28;19954;-72
2023/03/16 07:31:45;;;;;;;;;;;;;;;;;;5114849;28;20006;-74
2023/03/16 07:34:11;;;;;;;;;;;;;;;;;;5115346;28;20143;-73
2023/03/16 07:36:37;;;;;;;;;;;;;;;;;;5114772;28;19952;-73
2023/03/16 07:39:03;;;;;;;;;;;;;;;;;;5114922;28;19970;-73
2023/03/16 07:41:29;;;;;;;;;;;;;;;;;;5114578;28;20030;-73
2023/03/16 07:43:57;;;;;;;;;;;;;;;;;;5114641;28;19951;-72
2023/03/16 07:46:23;;;;;;;;;;;;;;;;;;5115011;28;20313;-74
2023/03/16 07:48:48;;;;;;;;;;;;;;;;;;5114549;28;19948;-76
2023/03/16 07:51:14;;;;;;;;;;;;;;;;;;5114826;28;19950;-73
2023/03/16 07:53:40;;;;;;;;;;;;;;;;;;5114511;28;19951;-72
2023/03/16 07:56:06;;;;;;;;;;;;;;;;;;5114992;28;19958;-72
2023/03/16 07:58:32;;;;;;;;;;;;;;;;;;5109158;28;19977;-73
2023/03/16 08:00:58;;;;;;;;;;;;;;;;;;5102631;28;19966;-73
2023/03/16 08:03:24;;;;;;;;;;;;;;;;;;5104247;28;19996;-74
2023/03/16 08:05:50;;;;;;;;;;;;;;;;;;5111290;28;20431;-74
2023/03/16 08:08:16;;;;;;;;;;;;;;;;;;5093959;28;19954;-74
2023/03/16 08:10:42;;;;;;;;;;;;;;;;;;5111726;28;20418;-73
2023/03/16 08:13:08;;;;;;;;;;;;;;;;;;5113474;28;20016;-73
2023/03/16 08:15:34;;;;;;;;;;;;;;;;;;5112721;28;19979;-73
2023/03/16 08:18:01;;;;;;;;;;;;;;;;;;5111558;28;19956;-73
2023/03/16 08:20:27;;;;;;;;;;;;;;;;;;5092478;28;19955;-75
2023/03/16 08:22:53;;;;;;;;;;;;;;;;;;5111518;28;20427;-74
2023/03/16 08:25:18;;;;;;;;;;;;;;;;;;5112884;28;19962;-73
2023/03/16 08:27:44;;;;;;;;;;;;;;;;;;5114182;28;19951;-73
2023/03/16 08:30:10;;;;;;;;;;;;;;;;;;5113549;28;20339;-75
2023/03/16 08:32:38;;;;;;;;;;;;;;;;;;5113401;28;20431;-75
2023/03/16 08:35:04;;;;;;;;;;;;;;;;;;5091236;28;19952;-73
2023/03/16 08:37:30;;;;;;;;;;;;;;;;;;5106178;28;20442;-75
2023/03/16 08:39:56;;;;;;;;;;;;;;;;;;5113067;28;19970;-75
2023/03/16 08:42:22;;;;;;;;;;;;;;;;;;5113422;28;19986;-75
2023/03/16 08:44:48;;;;;;;;;;;;;;;;;;5113986;28;20034;-75
2023/03/16 08:47:14;;;;;;;;;;;;;;;;;;5113281;28;19951;-75
2023/03/16 08:49:41;;;;;;;;;;;;;;;;;;5095619;28;20513;-74
2023/03/16 08:52:09;;;;;;;;;;;;;;;;;;5114523;28;19945;-74
2023/03/16 08:54:37;;;;;;;;;;;;;;;;;;5112591;28;20267;-74
2023/03/16 08:57:03;;;;;;;;;;;;;;;;;;5113853;28;19970;-74
2023/03/16 08:59:29;;;;;;;;;;;;;;;;;;5116159;28;20454;-75
2023/03/16 09:01:55;;;;;;;;;;;;;;;;;;5117808;28;19994;-75
2023/03/16 09:04:21;;;;;;;;;;;;;;;;;;5118350;28;19957;-77
2023/03/16 09:06:46;;;;;;;;;;;;;;;;;;5117764;28;19955;-74
2023/03/16 09:09:12;;;;;;;;;;;;;;;;;;5115650;28;19959;-75
2023/03/16 09:11:39;;;;;;;;;;;;;;;;;;5114173;28;19956;-76
2023/03/16 09:14:05;;;;;;;;;;;;;;;;;;5114671;28;19974;-76
2023/03/16 09:16:31;;;;;;;;;;;;;;;;;;5115627;28;19974;-76
2023/03/16 09:18:57;;;;;;;;;;;;;;;;;;5115967;28;19973;-75
2023/03/16 09:21:24;;;;;;;;;;;;;;;;;;5116300;28;19959;-76
2023/03/16 09:23:50;;;;;;;;;;;;;;;;;;5115004;28;20015;-75
2023/03/16 09:26:16;;;;;;;;;;;;;;;;;;5112746;28;20462;-70
2023/03/16 09:28:42;;;;;;;;;;;;;;;;;;5115023;28;20442;-70
2023/03/16 09:31:08;;;;;;;;;;;;;;;;;;5117542;28;19951;-72
2023/03/16 09:33:34;;;;;;;;;;;;;;;;;;5117552;28;19958;-73
2023/03/16 09:36:00;;;;;;;;;;;;;;;;;;5117223;28;19965;-73
2023/03/16 09:38:26;;;;;;;;;;;;;;;;;;5117303;28;19966;-73
2023/03/16 09:40:53;;;;;;;;;;;;;;;;;;5115811;28;19991;-73
2023/03/16 09:43:18;;;;;;;;;;;;;;;;;;5116112;28;20051;-74
2023/03/16 09:45:45;;;;;;;;;;;;;;;;;;5116245;28;20004;-75
2023/03/16 09:48:11;;;;;;;;;;;;;;;;;;5116257;28;19979;-73
2023/03/16 09:50:37;;;;;;;;;;;;;;;;;;5116708;28;20441;-72
2023/03/16 09:53:03;;;;;;;;;;;;;;;;;;5115482;28;19956;-70
2023/03/16 09:55:29;;;;;;;;;;;;;;;;;;5115900;28;19954;-76
2023/03/16 09:57:56;;;;;;;;;;;;;;;;;;5115786;28;19959;-72
2023/03/16 10:00:22;;;;;;;;;;;;;;;;;;5116655;28;19962;-70
2023/03/16 10:02:48;;;;;;;;;;;;;;;;;;5115511;28;20409;-69
2023/03/16 10:05:14;;;;;;;;;;;;;;;;;;5116577;28;20041;-71
2023/03/16 10:07:41;;;;;;;;;;;;;;;;;;5116544;28;19945;-72
2023/03/16 10:10:07;;;;;;;;;;;;;;;;;;5115447;28;20002;-73
2023/03/16 10:12:33;;;;;;;;;;;;;;;;;;5116416;28;19951;-72
2023/03/16 10:14:59;;;;;;;;;;;;;;;;;;5115249;28;19971;-72
2023/03/16 10:17:25;;;;;;;;;;;;;;;;;;5116371;28;19978;-72
2023/03/16 10:19:51;;;;;;;;;;;;;;;;;;5116785;28;20064;-73
2023/03/16 10:22:17;;;;;;;;;;;;;;;;;;5116555;28;19994;-72
2023/03/16 10:24:43;;;;;;;;;;;;;;;;;;5116232;28;19950;-71
2023/03/16 10:27:09;;;;;;;;;;;;;;;;;;5114552;28;19981;-74
2023/03/16 10:29:38;;;;;;;;;;;;;;;;;;5114456;28;19959;-73
2023/03/16 10:32:03;;;;;;;;;;;;;;;;;;5100258;28;19956;-71
2023/03/16 10:34:29;;;;;;;;;;;;;;;;;;5113871;28;19967;-73
2023/03/16 10:36:55;;;;;;;;;;;;;;;;;;5116223;28;20027;-68
2023/03/16 10:39:21;;;;;;;;;;;;;;;;;;5114172;28;20040;-71
2023/03/16 10:41:49;;;;;;;;;;;;;;;;;;5112751;28;19980;-70
2023/03/16 10:44:15;;;;;;;;;;;;;;;;;;5112366;28;20412;-70
2023/03/16 10:46:41;;;;;;;;;;;;;;;;;;5113333;28;19956;-72
2023/03/16 10:49:07;;;;;;;;;;;;;;;;;;5115991;28;19946;-74
2023/03/16 10:51:33;;;;;;;;;;;;;;;;;;5114953;28;20393;-74
2023/03/16 10:53:59;;;;;;;;;;;;;;;;;;5115208;28;19951;-71
2023/03/16 10:56:26;;;;;;;;;;;;;;;;;;5115587;28;20046;-70
2023/03/16 10:58:52;;;;;;;;;;;;;;;;;;5114551;28;19986;-72
2023/03/16 11:01:19;;;;;;;;;;;;;;;;;;5115462;28;20317;-72
2023/03/16 11:03:45;;;;;;;;;;;;;;;;;;5115493;28;19998;-71
2023/03/16 11:06:11;;;;;;;;;;;;;;;;;;5115554;28;19958;-70
2023/03/16 11:08:37;;;;;;;;;;;;;;;;;;5114205;28;19957;-69
2023/03/16 11:11:03;;;;;;;;;;;;;;;;;;5115276;28;19989;-71
2023/03/16 11:13:30;;;;;;;;;;;;;;;;;;5115473;28;19988;-71
2023/03/16 11:15:56;;;;;;;;;;;;;;;;;;5114251;28;19955;-70
2023/03/16 11:18:23;;;;;;;;;;;;;;;;;;5115369;28;19975;-73
2023/03/16 11:20:50;;;;;;;;;;;;;;;;;;5113593;28;20432;-75
2023/03/16 11:23:15;;;;;;;;;;;;;;;;;;5115569;28;20429;-74
2023/03/16 11:25:41;;;;;;;;;;;;;;;;;;5114991;28;19954;-75
2023/03/16 11:28:10;;;;;;;;;;;;;;;;;;5111253;28;19961;-71
2023/03/16 11:30:37;;;;;;;;;;;;;;;;;;5108148;28;20042;-78
2023/03/16 11:33:04;;;;;;;;;;;;;;;;;;5115021;28;19958;-78
2023/03/16 11:35:30;;;;;;;;;;;;;;;;;;5115155;28;19950;-78
2023/03/16 11:37:56;;;;;;;;;;;;;;;;;;5114956;28;20323;-79
2023/03/16 11:40:22;;;;;;;;;;;;;;;;;;5115023;28;20101;-78
2023/03/16 11:42:48;;;;;;;;;;;;;;;;;;5115330;28;20392;-77
2023/03/16 11:45:14;;;;;;;;;;;;;;;;;;5114940;28;20032;-78
2023/03/16 11:47:40;;;;;;;;;;;;;;;;;;5115149;28;19954;-78
2023/03/16 11:50:06;;;;;;;;;;;;;;;;;;5114601;28;19944;-77
2023/03/16 11:52:32;;;;;;;;;;;;;;;;;;5115209;28;19960;-78
2023/03/16 11:54:58;;;;;;;;;;;;;;;;;;5114532;28;20411;-79
2023/03/16 11:57:24;;;;;;;;;;;;;;;;;;5114473;28;19951;-78
2023/03/16 11:59:50;;;;;;;;;;;;;;;;;;5114418;28;19975;-78
2023/03/16 12:02:16;;;;;;;;;;;;;;;;;;5114721;28;19952;-77
2023/03/16 12:04:43;;;;;;;;;;;;;;;;;;5114353;28;20315;-78
2023/03/16 12:07:10;;;;;;;;;;;;;;;;;;5114353;28;19997;-77
2023/03/16 12:09:36;;;;;;;;;;;;;;;;;;5096061;28;19956;-78
2023/03/16 12:12:03;;;;;;;;;;;;;;;;;;5114902;28;20409;-77
2023/03/16 12:14:29;;;;;;;;;;;;;;;;;;5114204;28;20448;-79
2023/03/16 12:16:56;;;;;;;;;;;;;;;;;;5114242;28;19952;-78
2023/03/16 12:19:22;;;;;;;;;;;;;;;;;;5114439;28;19975;-78
2023/03/16 12:21:48;;;;;;;;;;;;;;;;;;5114442;28;20397;-77
2023/03/16 12:24:14;;;;;;;;;;;;;;;;;;5114171;28;20414;-78
2023/03/16 12:26:40;;;;;;;;;;;;;;;;;;5114485;28;19958;-77
2023/03/16 12:29:07;;;;;;;;;;;;;;;;;;5114085;28;20315;-78
2023/03/16 12:31:33;;;;;;;;;;;;;;;;;;5114073;28;19952;-77
2023/03/16 12:33:59;;;;;;;;;;;;;;;;;;5116816;28;20455;-79
2023/03/16 12:36:25;;;;;;;;;;;;;;;;;;5118304;28;19951;-78
2023/03/16 12:38:52;;;;;;;;;;;;;;;;;;5118468;28;20022;-78
2023/03/16 12:41:18;;;;;;;;;;;;;;;;;;5118033;28;20479;-79
2023/03/16 12:43:45;;;;;;;;;;;;;;;;;;5118753;28;19960;-77
2023/03/16 12:46:11;;;;;;;;;;;;;;;;;;5099864;28;20317;-78
2023/03/16 12:48:37;;;;;;;;;;;;;;;;;;5120936;28;19959;-77
2023/03/16 12:51:04;;;;;;;;;;;;;;;;;;5121962;28;19958;-79
2023/03/16 12:53:30;;;;;;;;;;;;;;;;;;5121631;28;20033;-79
2023/03/16 12:55:56;;;;;;;;;;;;;;;;;;5118626;28;19950;-78
2023/03/16 12:58:22;;;;;;;;;;;;;;;;;;5118440;28;19975;-78
2023/03/16 13:00:49;;;;;;;;;;;;;;;;;;5112069;28;21469;-78
2023/03/16 13:03:16;;;;;;;;;;;;;;;;;;5078192;28;20412;-75
2023/03/16 13:05:42;;;;;;;;;;;;;;;;;;5082842;28;20041;-74
2023/03/16 13:08:08;;;;;;;;;;;;;;;;;;5065660;28;20002;-73
2023/03/16 13:10:36;;;;;;;;;;;;;;;;;;5077465;28;19963;-75
2023/03/16 13:13:03;;;;;;;;;;;;;;;;;;5079817;28;20006;-77
2023/03/16 13:15:30;;;;;;;;;;;;;;;;;;5079011;28;19973;-75
2023/03/16 13:17:56;;;;;;;;;;;;;;;;;;5058827;28;19956;-74
2023/03/16 13:20:22;;;;;;;;;;;;;;;;;;5077007;28;20041;-76
2023/03/16 13:22:52;;;;;;;;;;;;;;;;;;5076731;28;20405;-74
2023/03/16 13:25:21;;;;;;;;;;;;;;;;;;5086264;28;19965;-75
2023/03/16 13:27:46;;;;;;;;;;;;;;;;;;5096930;28;20005;-77
2023/03/16 13:30:12;;;;;;;;;;;;;;;;;;5097152;28;19958;-76
2023/03/16 13:32:38;;;;;;;;;;;;;;;;;;5096821;28;19950;-73
2023/03/16 13:35:04;;;;;;;;;;;;;;;;;;5096780;28;19956;-72
2023/03/16 13:37:30;;;;;;;;;;;;;;;;;;5097263;28;20388;-72
2023/03/16 13:39:56;;;;;;;;;;;;;;;;;;5092180;28;20018;-74
2023/03/16 13:42:22;;;;;;;;;;;;;;;;;;5096163;28;20047;-73
2023/03/16 13:44:48;;;;;;;;;;;;;;;;;;5096301;28;19952;-70
2023/03/16 13:47:14;;;;;;;;;;;;;;;;;;5096822;28;19955;-71
2023/03/16 13:49:41;;;;;;;;;;;;;;;;;;5098681;28;19964;-69
2023/03/16 13:52:08;;;;;;;;;;;;;;;;;;5117155;28;19950;-69
2023/03/16 13:54:34;;;;;;;;;;;;;;;;;;5101318;28;19965;-71
2023/03/16 13:57:00;;;;;;;;;;;;;;;;;;5096599;28;19950;-72
2023/03/16 13:59:26;;;;;;;;;;;;;;;;;;5108773;28;19974;-70
2023/03/16 14:01:55;;;;;;;;;;;;;;;;;;5112230;28;20029;-71
2023/03/16 14:04:22;;;;;;;;;;;;;;;;;;5096238;28;19951;-70
2023/03/16 14:06:48;;;;;;;;;;;;;;;;;;5096547;28;20419;-71
2023/03/16 14:09:14;;;;;;;;;;;;;;;;;;5096097;28;19958;-71
2023/03/16 14:11:41;;;;;;;;;;;;;;;;;;5096373;28;20084;-70
2023/03/16 14:14:07;;;;;;;;;;;;;;;;;;5095453;28;19973;-69
2023/03/16 14:16:33;;;;;;;;;;;;;;;;;;5096866;28;20391;-69
2023/03/16 14:18:59;;;;;;;;;;;;;;;;;;5096137;28;19976;-69
2023/03/16 14:21:25;;;;;;;;;;;;;;;;;;5095896;28;20363;-73
2023/03/16 14:23:51;;;;;;;;;;;;;;;;;;5095739;28;19959;-72
2023/03/16 14:26:17;;;;;;;;;;;;;;;;;;5095503;28;20290;-75
2023/03/16 14:28:43;;;;;;;;;;;;;;;;;;5094056;28;19953;-76
2023/03/16 14:31:09;;;;;;;;;;;;;;;;;;5095971;28;20046;-73
2023/03/16 14:33:36;;;;;;;;;;;;;;;;;;5094787;28;20047;-70
2023/03/16 14:36:02;;;;;;;;;;;;;;;;;;5095532;28;19952;-70
2023/03/16 14:38:28;;;;;;;;;;;;;;;;;;5096460;28;20091;-71
2023/03/16 14:40:54;;;;;;;;;;;;;;;;;;5106426;28;19990;-69
2023/03/16 14:43:21;;;;;;;;;;;;;;;;;;5094660;28;19955;-71
2023/03/16 14:45:47;;;;;;;;;;;;;;;;;;5095237;28;20097;-71
2023/03/16 14:48:15;;;;;;;;;;;;;;;;;;5095351;28;20006;-69
2023/03/16 14:50:41;;;;;;;;;;;;;;;;;;5095568;28;20316;-69
2023/03/16 14:53:07;;;;;;;;;;;;;;;;;;5095247;28;19953;-71
2023/03/16 14:55:33;;;;;;;;;;;;;;;;;;5094712;28;19960;-73
2023/03/16 14:57:59;;;;;;;;;;;;;;;;;;5095070;28;20465;-75
2023/03/16 15:00:25;;;;;;;;;;;;;;;;;;5095136;28;19947;-73
2023/03/16 15:02:51;;;;;;;;;;;;;;;;;;5095381;28;19950;-72
2023/03/16 15:05:17;;;;;;;;;;;;;;;;;;5095307;28;20413;-72
2023/03/16 15:07:45;;;;;;;;;;;;;;;;;;5095402;28;19996;-70
2023/03/16 15:10:12;;;;;;;;;;;;;;;;;;5094948;28;19956;-71
2023/03/16 15:12:39;;;;;;;;;;;;;;;;;;5094920;28;19973;-72
2023/03/16 15:15:14;;;;;;;;;;;;;;;;;;5095059;28;20333;-72
2023/03/16 15:17:42;;;;;;;;;;;;;;;;;;5094797;28;20427;-72
2023/03/16 15:20:08;;;;;;;;;;;;;;;;;;5095199;28;20419;-70
2023/03/16 15:22:35;;;;;;;;;;;;;;;;;;5093466;28;20379;-72
2023/03/16 15:25:01;;;;;;;;;;;;;;;;;;5095260;28;20004;-70
2023/03/16 15:27:27;;;;;;;;;;;;;;;;;;5094608;28;19960;-73
2023/03/16 15:29:53;;;;;;;;;;;;;;;;;;5094656;28;20450;-72
2023/03/16 15:32:19;;;;;;;;;;;;;;;;;;5099062;28;19955;-72
2023/03/16 15:34:45;;;;;;;;;;;;;;;;;;5114890;28;19984;-72
2023/03/16 15:37:11;;;;;;;;;;;;;;;;;;5114851;28;19958;-72
2023/03/16 15:39:37;;;;;;;;;;;;;;;;;;5101562;28;19973;-74
2023/03/16 15:42:03;;;;;;;;;;;;;;;;;;5090401;28;20390;-73
2023/03/16 15:44:29;;;;;;;;;;;;;;;;;;5109549;28;19957;-73
2023/03/16 15:46:55;;;;;;;;;;;;;;;;;;5114925;28;19953;-70
2023/03/16 15:49:22;;;;;;;;;;;;;;;;;;5113365;28;19956;-70
2023/03/16 15:51:48;;;;;;;;;;;;;;;;;;5087456;28;20015;-69
2023/03/16 15:54:14;;;;;;;;;;;;;;;;;;5101095;28;20452;-70
2023/03/16 15:56:40;;;;;;;;;;;;;;;;;;5093931;28;19952;-70
2023/03/16 15:59:07;;;;;;;;;;;;;;;;;;5094032;28;19978;-72
2023/03/16 16:01:38;;;;;;;;;;;;;;;;;;5094086;28;19965;-67
2023/03/16 16:04:04;;;;;;;;;;;;;;;;;;5094130;28;20003;-68
2023/03/16 16:06:30;;;;;;;;;;;;;;;;;;5094007;28;19958;-72
2023/03/16 16:08:56;;;;;;;;;;;;;;;;;;5093971;28;19953;-69
2023/03/16 16:11:22;;;;;;;;;;;;;;;;;;5094202;28;20334;-73
2023/03/16 16:13:48;;;;;;;;;;;;;;;;;;5107305;28;19968;-73
2023/03/16 16:16:14;;;;;;;;;;;;;;;;;;5112872;28;19999;-72
2023/03/16 16:18:40;;;;;;;;;;;;;;;;;;5113113;28;19966;-73
2023/03/16 16:21:07;;;;;;;;;;;;;;;;;;5113429;28;19950;-72
2023/03/16 16:23:34;;;;;;;;;;;;;;;;;;5095334;28;19955;-73
2023/03/16 16:26:00;;;;;;;;;;;;;;;;;;5113620;28;19952;-74
2023/03/16 16:28:28;;;;;;;;;;;;;;;;;;5113600;28;19951;-75
2023/03/16 16:30:54;;;;;;;;;;;;;;;;;;5114651;28;19949;-74
2023/03/16 16:33:20;;;;;;;;;;;;;;;;;;5114326;28;19974;-73
2023/03/16 16:35:46;;;;;;;;;;;;;;;;;;5114342;28;19957;-74
2023/03/16 16:38:12;;;;;;;;;;;;;;;;;;5113911;28;19951;-74